Accueil
METAR-TAF:

METAR-TAF

Aéroports :

Aéroport de Lydd

Lydd, Angleterre

latitude: 50-57N, longitude: 000-56E, altitude: 3 m

Observation

Le bulletin a été fait il y a 29 minutes, à 17:20 UTC
Vent 26 kt de sud-ouest avec des rafales jusqu'à 36 kt
Température 18°C
Humidité 77%
Pression 1009 hPa
Visibilité 10 km ou plus
Nuages épars à une hauteur de 1300 ft

METAR: EGMD 281720Z 23026G36KT 9999 SCT013 18/14 Q1009

Heure: 18:49 (17:49 UTC)

Prévision

Le bulletin a été fait il y a 45 minutes, à 17:04 UTC
Prévision valable du 28 à 18 UTC au 29 à 03 UTC
Vent 22 kt de sud-ouest
Visibilité 10 km ou plus
Quelques nuages à une hauteur de 1000 ft
Probabilité 30% :
Temporairement
du 28 à 18 UTC au 28 à 21 UTC
Vent 25 kt de ouest/sud-ouest avec des rafales jusqu'à 35 kt

TAF: EGMD 281704Z 2818/2903 23022KT 9999 FEW010 PROB30 TEMPO 2818/2821 24025G35KT

Observations et prévisions météorologiques de plus de 4000 aéroports (messages METAR et TAF).

Les stations disponibles sont représentées par des disques jaunes et rouges sur la carte.

Passer la souris dessus pour voir le nom de la station.

Cliquer dessus pour voir les observations et prévisions météorologiques.

Pour changer de carte: cliquez sur les boutons verts avec une croix noire pour zoomer, sur le bouton vert avec un tiret pour effectuer un zoom arrière, ou sur les flèches vertes pour les cartes adjacentes.


METAR-TAF: